Time,TemperatureF,DewpointF,PressureIn,WindDirection,WindDirectionDegrees,WindSpeedMPH,WindSpeedGustMPH,Humidity,HourlyPrecipIn,Conditions,Clouds,dailyrainin,SoftwareType,DateUTC
2013-07-25 00:04:00,56.1,55.3,27.92,South,171,0.0,0.0,97,0.01,,---,0.00,VWS V14.01,2013-07-25 05:04:00,
2013-07-25 00:09:00,56.3,55.5,27.92,South,171,0.0,0.0,97,0.01,,---,0.00,VWS V14.01,2013-07-25 05:09:00,
2013-07-25 00:14:00,56.6,55.8,27.92,SW,232,5.0,5.0,97,0.01,,---,0.00,VWS V14.01,2013-07-25 05:14:00,
2013-07-25 00:19:00,56.8,56.0,27.92,WSW,239,0.0,0.0,97,0.01,,---,0.00,VWS V14.01,2013-07-25 05:19:00,
2013-07-25 00:24:00,56.9,56.1,27.92,WSW,237,0.0,0.0,97,0.01,,---,0.00,VWS V14.01,2013-07-25 05:24:00,
2013-07-25 00:30:00,57.0,55.9,27.92,WSW,237,0.0,0.0,96,0.01,,---,0.00,VWS V14.01,2013-07-25 05:30:00,
2013-07-25 00:35:00,57.0,55.9,27.92,WSW,237,0.0,2.0,96,0.01,,---,0.00,VWS V14.01,2013-07-25 05:35:00,
2013-07-25 00:40:00,57.2,56.1,27.92,WSW,238,0.0,0.0,96,0.01,,---,0.00,VWS V14.01,2013-07-25 05:40:00,
2013-07-25 00:45:00,57.2,56.1,27.92,WSW,238,0.0,0.0,96,0.01,,---,0.00,VWS V14.01,2013-07-25 05:45:00,
2013-07-25 00:50:00,57.3,56.2,27.92,WSW,238,0.0,0.0,96,0.01,,---,0.00,VWS V14.01,2013-07-25 05:50:00,
2013-07-25 00:55:00,57.3,56.2,27.92,WSW,240,0.0,0.0,96,0.00,,---,0.00,VWS V14.01,2013-07-25 05:55:00,
2013-07-25 01:00:00,57.3,55.9,27.92,WSW,240,0.0,1.0,95,0.00,,---,0.00,VWS V14.01,2013-07-25 06:00:00,
2013-07-25 01:05:00,57.4,56.0,27.93,WSW,240,0.0,0.0,95,0.00,,---,0.00,VWS V14.01,2013-07-25 06:05:00,
2013-07-25 01:10:00,57.4,56.0,27.93,WSW,240,0.0,0.0,95,0.02,,---,0.02,VWS V14.01,2013-07-25 06:10:00,
2013-07-25 01:15:00,57.4,56.3,27.93,WSW,240,0.0,0.0,96,0.03,,---,0.03,VWS V14.01,2013-07-25 06:15:00,
2013-07-25 01:21:00,57.3,56.2,27.92,WSW,240,0.0,0.0,96,0.05,,---,0.05,VWS V14.01,2013-07-25 06:21:00,
2013-07-25 01:26:00,57.2,56.1,27.92,WSW,240,0.0,0.0,96,0.06,,---,0.06,VWS V14.01,2013-07-25 06:26:00,
2013-07-25 01:31:00,57.1,56.0,27.92,WSW,240,0.0,0.0,96,0.07,,---,0.07,VWS V14.01,2013-07-25 06:31:00,
2013-07-25 01:36:00,57.0,55.9,27.92,WSW,240,0.0,0.0,96,0.08,,---,0.08,VWS V14.01,2013-07-25 06:36:00,
2013-07-25 01:41:00,56.9,55.8,27.92,WSW,240,0.0,0.0,96,0.08,,---,0.08,VWS V14.01,2013-07-25 06:41:00,
2013-07-25 01:46:00,56.9,55.8,27.92,WSW,240,0.0,1.0,96,0.14,,---,0.14,VWS V14.01,2013-07-25 06:46:00,
2013-07-25 01:52:00,56.8,55.7,27.92,WSW,240,0.0,0.0,96,0.18,,---,0.18,VWS V14.01,2013-07-25 06:52:00,
2013-07-25 01:57:00,56.7,55.6,27.92,WSW,240,0.0,0.0,96,0.18,,---,0.18,VWS V14.01,2013-07-25 06:57:00,
2013-07-25 02:02:00,56.6,55.5,27.91,WSW,240,0.0,0.0,96,0.19,,---,0.19,VWS V14.01,2013-07-25 07:02:00,
2013-07-25 02:07:00,56.6,55.5,27.91,WSW,240,0.0,0.0,96,0.18,,---,0.19,VWS V14.01,2013-07-25 07:07:00,
2013-07-25 02:12:00,56.6,55.8,27.91,WSW,240,0.0,0.0,97,0.17,,---,0.19,VWS V14.01,2013-07-25 07:12:00,
2013-07-25 02:17:00,56.5,55.7,27.91,WSW,240,0.0,0.0,97,0.16,,---,0.19,VWS V14.01,2013-07-25 07:17:00,
2013-07-25 02:22:00,56.4,55.6,27.91,WSW,240,0.0,0.0,97,0.14,,---,0.19,VWS V14.01,2013-07-25 07:22:00,
2013-07-25 02:27:00,56.5,55.7,27.91,WSW,240,0.0,0.0,97,0.13,,---,0.19,VWS V14.01,2013-07-25 07:27:00,
2013-07-25 02:32:00,56.4,55.6,27.91,WSW,240,0.0,0.0,97,0.11,,---,0.19,VWS V14.01,2013-07-25 07:32:00,
2013-07-25 02:37:00,56.4,55.6,27.91,WSW,240,0.0,0.0,97,0.11,,---,0.19,VWS V14.01,2013-07-25 07:37:00,
2013-07-25 02:42:00,56.3,55.5,27.91,WSW,240,0.0,0.0,97,0.10,,---,0.19,VWS V14.01,2013-07-25 07:42:00,
2013-07-25 02:47:00,56.2,55.4,27.90,WSW,240,0.0,0.0,97,0.05,,---,0.19,VWS V14.01,2013-07-25 07:47:00,
2013-07-25 02:52:00,56.2,55.4,27.90,WSW,240,0.0,0.0,97,0.01,,---,0.19,VWS V14.01,2013-07-25 07:52:00,
2013-07-25 02:58:00,56.2,55.4,27.90,WSW,240,0.0,0.0,97,0.01,,---,0.19,VWS V14.01,2013-07-25 07:58:00,
2013-07-25 03:03:00,56.2,55.4,27.91,WSW,240,1.0,1.0,97,0.00,,---,0.19,VWS V14.01,2013-07-25 08:03:00,
2013-07-25 03:08:00,56.1,55.3,27.91,WSW,240,0.0,0.0,97,0.00,,---,0.19,VWS V14.01,2013-07-25 08:08:00,
2013-07-25 03:13:00,56.0,55.2,27.91,WSW,240,0.0,0.0,97,0.00,,---,0.19,VWS V14.01,2013-07-25 08:13:00,
2013-07-25 03:18:00,56.0,55.2,27.90,WSW,240,0.0,0.0,97,0.00,,---,0.19,VWS V14.01,2013-07-25 08:18:00,
2013-07-25 03:23:00,55.9,55.1,27.90,WSW,240,0.0,0.0,97,0.00,,---,0.19,VWS V14.01,2013-07-25 08:23:00,
2013-07-25 03:28:00,55.8,55.0,27.90,WSW,240,0.0,0.0,97,0.00,,---,0.19,VWS V14.01,2013-07-25 08:28:00,
2013-07-25 03:33:00,55.8,55.0,27.91,WSW,240,0.0,0.0,97,0.00,,---,0.19,VWS V14.01,2013-07-25 08:33:00,
2013-07-25 03:38:00,55.8,55.0,27.91,WSW,240,0.0,0.0,97,0.00,,---,0.19,VWS V14.01,2013-07-25 08:38:00,
2013-07-25 03:44:00,55.9,55.1,27.91,WSW,240,0.0,0.0,97,0.00,,---,0.19,VWS V14.01,2013-07-25 08:44:00,
2013-07-25 03:49:00,55.9,55.1,27.90,WSW,240,0.0,0.0,97,0.00,,---,0.19,VWS V14.01,2013-07-25 08:49:00,
2013-07-25 03:54:00,55.9,55.1,27.90,WSW,240,0.0,0.0,97,0.00,,---,0.19,VWS V14.01,2013-07-25 08:54:00,
2013-07-25 03:59:00,55.9,55.1,27.90,WSW,240,0.0,0.0,97,0.00,,---,0.19,VWS V14.01,2013-07-25 08:59:00,
2013-07-25 04:04:00,55.9,55.1,27.90,WSW,240,0.0,0.0,97,0.00,,---,0.19,VWS V14.01,2013-07-25 09:04:00,
2013-07-25 04:09:00,55.8,55.0,27.90,WSW,240,0.0,1.0,97,0.00,,---,0.19,VWS V14.01,2013-07-25 09:09:00,
2013-07-25 04:14:00,55.7,54.9,27.90,WSW,240,0.0,0.0,97,0.00,,---,0.19,VWS V14.01,2013-07-25 09:14:00,
2013-07-25 04:19:00,55.7,54.9,27.90,WSW,240,0.0,0.0,97,0.00,,---,0.19,VWS V14.01,2013-07-25 09:19:00,
2013-07-25 04:24:00,55.7,54.9,27.90,WSW,240,0.0,0.0,97,0.00,,---,0.19,VWS V14.01,2013-07-25 09:24:00,
2013-07-25 04:29:00,55.5,54.7,27.90,WSW,240,0.0,0.0,97,0.00,,---,0.19,VWS V14.01,2013-07-25 09:29:00,
2013-07-25 04:34:00,55.4,54.6,27.90,WSW,240,0.0,0.0,97,0.00,,---,0.19,VWS V14.01,2013-07-25 09:34:00,
2013-07-25 04:39:00,55.3,54.5,27.90,WSW,240,0.0,0.0,97,0.00,,---,0.19,VWS V14.01,2013-07-25 09:39:00,
2013-07-25 04:44:00,55.2,54.4,27.90,WSW,240,0.0,0.0,97,0.00,,---,0.19,VWS V14.01,2013-07-25 09:44:00,
2013-07-25 04:49:00,55.1,54.3,27.90,WSW,240,0.0,2.0,97,0.00,,---,0.19,VWS V14.01,2013-07-25 09:49:00,
2013-07-25 04:54:00,55.0,54.2,27.90,WSW,240,0.0,0.0,97,0.00,,---,0.19,VWS V14.01,2013-07-25 09:54:00,
2013-07-25 05:00:00,54.9,54.1,27.90,WSW,240,0.0,0.0,97,0.00,,---,0.19,VWS V14.01,2013-07-25 10:00:00,
2013-07-25 05:05:00,54.8,54.0,27.90,WSW,240,0.0,1.0,97,0.00,,---,0.19,VWS V14.01,2013-07-25 10:05:00,
2013-07-25 05:10:00,54.6,53.8,27.90,WSW,240,0.0,0.0,97,0.00,,---,0.19,VWS V14.01,2013-07-25 10:10:00,
2013-07-25 05:15:00,54.6,53.8,27.90,WSW,240,0.0,0.0,97,0.00,,---,0.19,VWS V14.01,2013-07-25 10:15:00,
2013-07-25 05:20:00,54.6,53.8,27.90,WSW,240,0.0,0.0,97,0.00,,---,0.19,VWS V14.01,2013-07-25 10:20:00,
2013-07-25 05:25:00,54.5,53.7,27.90,WSW,240,0.0,0.0,97,0.00,,---,0.19,VWS V14.01,2013-07-25 10:25:00,
2013-07-25 05:30:00,54.4,53.6,27.90,WSW,240,0.0,0.0,97,0.00,,---,0.19,VWS V14.01,2013-07-25 10:30:00,
2013-07-25 05:35:00,54.3,53.5,27.90,WSW,240,0.0,0.0,97,0.00,,---,0.19,VWS V14.01,2013-07-25 10:35:00,
2013-07-25 05:40:00,54.2,53.4,27.90,WSW,240,0.0,0.0,97,0.00,,---,0.19,VWS V14.01,2013-07-25 10:40:00,
2013-07-25 05:45:00,54.0,53.2,27.90,WSW,240,0.0,0.0,97,0.00,,---,0.19,VWS V14.01,2013-07-25 10:45:00,
2013-07-25 05:50:00,53.9,53.1,27.90,WSW,240,0.0,1.0,97,0.00,,---,0.19,VWS V14.01,2013-07-25 10:50:00,
2013-07-25 05:55:00,53.9,53.1,27.90,WSW,240,0.0,0.0,97,0.00,,---,0.19,VWS V14.01,2013-07-25 10:55:00,
2013-07-25 06:00:00,53.9,53.1,27.90,WSW,240,0.0,0.0,97,0.00,,---,0.19,VWS V14.01,2013-07-25 11:00:00,
2013-07-25 06:06:00,53.9,53.1,27.91,WSW,240,0.0,0.0,97,0.00,,---,0.19,VWS V14.01,2013-07-25 11:06:00,
2013-07-25 06:11:00,54.1,53.3,27.91,WSW,240,0.0,0.0,97,0.00,,---,0.19,VWS V14.01,2013-07-25 11:11:00,
2013-07-25 06:16:00,54.2,53.7,27.90,WSW,240,0.0,0.0,98,0.00,,---,0.19,VWS V14.01,2013-07-25 11:16:00,
2013-07-25 06:21:00,54.3,53.5,27.90,WSW,240,0.0,0.0,97,0.00,,---,0.19,VWS V14.01,2013-07-25 11:21:00,
2013-07-25 06:26:00,54.5,53.7,27.90,WSW,240,0.0,0.0,97,0.00,,---,0.19,VWS V14.01,2013-07-25 11:26:00,
2013-07-25 06:31:00,54.6,53.8,27.91,WSW,240,0.0,0.0,97,0.00,,---,0.19,VWS V14.01,2013-07-25 11:31:00,
2013-07-25 06:37:00,54.7,54.2,27.91,WSW,240,0.0,0.0,98,0.00,,---,0.19,VWS V14.01,2013-07-25 11:37:00,
2013-07-25 06:42:00,54.9,54.3,27.91,WSW,240,0.0,0.0,98,0.00,,---,0.19,VWS V14.01,2013-07-25 11:42:00,
2013-07-25 06:47:00,55.0,54.5,27.91,WSW,240,0.0,0.0,98,0.00,,---,0.19,VWS V14.01,2013-07-25 11:47:00,
2013-07-25 06:52:00,55.1,54.5,27.91,WSW,240,0.0,0.0,98,0.00,,---,0.19,VWS V14.01,2013-07-25 11:52:00,
2013-07-25 06:58:00,55.3,54.8,27.91,WSW,240,0.0,0.0,98,0.00,,---,0.19,VWS V14.01,2013-07-25 11:58:00,
2013-07-25 07:03:00,55.6,55.0,27.91,WSW,240,0.0,0.0,98,0.00,,---,0.19,VWS V14.01,2013-07-25 12:03:00,
2013-07-25 07:08:00,55.8,55.2,27.91,WSW,240,0.0,0.0,98,0.00,,---,0.19,VWS V14.01,2013-07-25 12:08:00,
2013-07-25 07:13:00,56.0,55.5,27.91,WSW,240,0.0,0.0,98,0.00,,---,0.19,VWS V14.01,2013-07-25 12:13:00,
2013-07-25 07:18:00,56.5,55.9,27.91,WSW,240,0.0,0.0,98,0.00,,---,0.19,VWS V14.01,2013-07-25 12:18:00,
2013-07-25 07:23:00,57.0,56.4,27.91,WSW,240,1.0,1.0,98,0.00,,---,0.19,VWS V14.01,2013-07-25 12:23:00,
2013-07-25 07:28:00,57.6,57.0,27.91,WSW,240,0.0,0.0,98,0.00,,---,0.19,VWS V14.01,2013-07-25 12:28:00,
2013-07-25 07:33:00,57.9,57.3,27.91,WSW,240,0.0,0.0,98,0.00,,---,0.19,VWS V14.01,2013-07-25 12:33:00,
2013-07-25 07:38:00,58.4,57.8,27.91,WSW,240,0.0,0.0,98,0.00,,---,0.19,VWS V14.01,2013-07-25 12:38:00,
2013-07-25 07:43:00,58.9,58.3,27.91,WSW,240,0.0,0.0,98,0.00,,---,0.19,VWS V14.01,2013-07-25 12:43:00,
2013-07-25 07:48:00,59.0,58.4,27.92,WSW,240,0.0,0.0,98,0.00,,---,0.19,VWS V14.01,2013-07-25 12:48:00,
2013-07-25 07:54:00,59.6,59.0,27.92,WSW,240,0.0,1.0,98,0.00,,---,0.19,VWS V14.01,2013-07-25 12:54:00,
2013-07-25 07:59:00,60.3,59.5,27.92,WSW,240,0.0,1.0,97,0.00,,---,0.19,VWS V14.01,2013-07-25 12:59:00,
2013-07-25 08:04:00,60.9,59.8,27.92,WSW,242,0.0,2.0,96,0.00,,---,0.19,VWS V14.01,2013-07-25 13:04:00,
2013-07-25 08:09:00,60.9,58.9,27.92,WSW,242,0.0,0.0,93,0.00,,---,0.19,VWS V14.01,2013-07-25 13:09:00,
2013-07-25 08:14:00,60.7,58.4,27.92,WSW,242,0.0,0.0,92,0.00,,---,0.19,VWS V14.01,2013-07-25 13:14:00,
2013-07-25 08:19:00,60.9,58.9,27.92,WSW,246,2.0,3.0,93,0.00,,---,0.19,VWS V14.01,2013-07-25 13:19:00,
2013-07-25 08:24:00,60.9,58.6,27.92,WSW,246,0.0,1.0,92,0.00,,---,0.19,VWS V14.01,2013-07-25 13:24:00,
2013-07-25 08:29:00,60.7,58.4,27.92,WSW,250,0.0,3.0,92,0.00,,---,0.19,VWS V14.01,2013-07-25 13:29:00,
2013-07-25 08:34:00,60.7,58.4,27.92,WSW,250,0.0,3.0,92,0.00,,---,0.19,VWS V14.01,2013-07-25 13:34:00,
2013-07-25 08:39:00,61.2,59.2,27.92,WSW,251,1.0,3.0,93,0.00,,---,0.19,VWS V14.01,2013-07-25 13:39:00,
2013-07-25 08:44:00,61.1,58.2,27.92,WSW,251,0.0,0.0,90,0.00,,---,0.19,VWS V14.01,2013-07-25 13:44:00,
2013-07-25 08:49:00,61.1,58.5,27.92,WSW,251,0.0,0.0,91,0.00,,---,0.19,VWS V14.01,2013-07-25 13:49:00,
2013-07-25 08:55:00,60.6,58.0,27.92,NW,305,2.0,4.0,91,0.00,,---,0.19,VWS V14.01,2013-07-25 13:55:00,
2013-07-25 09:00:00,60.3,58.0,27.92,NW,305,0.0,1.0,92,0.00,,---,0.19,VWS V14.01,2013-07-25 14:00:00,
2013-07-25 09:05:00,60.0,58.0,27.92,NW,305,1.0,2.0,93,0.00,,---,0.19,VWS V14.01,2013-07-25 14:05:00,
2013-07-25 09:10:00,60.0,58.0,27.92,NW,305,0.0,1.0,93,0.00,,---,0.19,VWS V14.01,2013-07-25 14:10:00,
2013-07-25 09:15:00,60.2,58.2,27.92,NW,305,0.0,0.0,93,0.00,,---,0.19,VWS V14.01,2013-07-25 14:15:00,
2013-07-25 09:20:00,60.6,58.6,27.92,NW,305,2.0,2.0,93,0.00,,---,0.19,VWS V14.01,2013-07-25 14:20:00,
2013-07-25 09:25:00,60.8,58.5,27.92,NW,305,0.0,0.0,92,0.00,,---,0.19,VWS V14.01,2013-07-25 14:25:00,
2013-07-25 09:30:00,61.2,58.6,27.92,NW,305,2.0,3.0,91,0.00,,---,0.19,VWS V14.01,2013-07-25 14:30:00,
2013-07-25 09:35:00,61.2,58.9,27.92,NW,305,1.0,1.0,92,0.00,,---,0.19,VWS V14.01,2013-07-25 14:35:00,
2013-07-25 09:40:00,60.9,58.6,27.92,NW,305,1.0,2.0,92,0.00,,---,0.19,VWS V14.01,2013-07-25 14:40:00,
2013-07-25 09:45:00,60.7,58.1,27.92,NW,316,0.0,4.0,91,0.00,,---,0.19,VWS V14.01,2013-07-25 14:45:00,
2013-07-25 09:50:00,60.8,58.5,27.92,NW,316,2.0,3.0,92,0.00,,---,0.19,VWS V14.01,2013-07-25 14:50:00,
2013-07-25 09:56:00,60.9,58.6,27.92,NW,316,0.0,3.0,92,0.00,,---,0.19,VWS V14.01,2013-07-25 14:56:00,
2013-07-25 10:01:00,61.1,58.8,27.92,NNW,327,0.0,0.0,92,0.00,,---,0.19,VWS V14.01,2013-07-25 15:01:00,
2013-07-25 10:06:00,61.4,58.8,27.92,NNW,331,0.0,2.0,91,0.00,,---,0.19,VWS V14.01,2013-07-25 15:06:00,
2013-07-25 10:11:00,61.8,59.2,27.92,NNW,331,0.0,1.0,91,0.00,,---,0.19,VWS V14.01,2013-07-25 15:11:00,
2013-07-25 10:16:00,62.5,59.8,27.92,NNW,336,1.0,1.0,91,0.00,,---,0.19,VWS V14.01,2013-07-25 15:16:00,
2013-07-25 10:21:00,62.9,59.6,27.92,NNW,336,2.0,2.0,89,0.00,,---,0.19,VWS V14.01,2013-07-25 15:21:00,
2013-07-25 10:26:00,62.9,59.3,27.92,NNW,336,0.0,0.0,88,0.00,,---,0.19,VWS V14.01,2013-07-25 15:26:00,
2013-07-25 10:31:00,62.9,59.3,27.93,NNW,342,1.0,1.0,88,0.00,,---,0.19,VWS V14.01,2013-07-25 15:31:00,
2013-07-25 10:37:00,63.3,59.4,27.93,NNW,342,0.0,0.0,87,0.00,,---,0.19,VWS V14.01,2013-07-25 15:37:00,
2013-07-25 10:42:00,63.6,59.7,27.93,NNW,342,2.0,2.0,87,0.00,,---,0.19,VWS V14.01,2013-07-25 15:42:00,
2013-07-25 10:47:00,63.4,59.5,27.93,NNW,342,0.0,0.0,87,0.00,,---,0.19,VWS V14.01,2013-07-25 15:47:00,
2013-07-25 10:52:00,63.4,59.2,27.93,NNW,347,2.0,4.0,86,0.00,,---,0.19,VWS V14.01,2013-07-25 15:52:00,
2013-07-25 10:57:00,63.0,59.1,27.93,North,349,0.0,0.0,87,0.00,,---,0.19,VWS V14.01,2013-07-25 15:57:00,
2013-07-25 11:02:00,63.3,59.7,27.92,NNW,348,0.0,0.0,88,0.00,,---,0.19,VWS V14.01,2013-07-25 16:02:00,
2013-07-25 11:07:00,63.5,59.6,27.92,NNW,345,0.0,1.0,87,0.00,,---,0.19,VWS V14.01,2013-07-25 16:07:00,
2013-07-25 11:12:00,63.9,59.6,27.92,NNW,345,0.0,0.0,86,0.00,,---,0.19,VWS V14.01,2013-07-25 16:12:00,
2013-07-25 11:17:00,64.1,59.8,27.92,North,360,1.0,2.0,86,0.00,,---,0.19,VWS V14.01,2013-07-25 16:17:00,
2013-07-25 11:23:00,64.3,59.7,27.92,North,360,2.0,3.0,85,0.00,,---,0.19,VWS V14.01,2013-07-25 16:23:00,
2013-07-25 11:28:00,63.8,59.5,27.92,NNW,342,2.0,3.0,86,0.00,,---,0.19,VWS V14.01,2013-07-25 16:28:00,
2013-07-25 11:33:00,63.5,59.2,27.92,NNW,345,2.0,2.0,86,0.00,,---,0.19,VWS V14.01,2013-07-25 16:33:00,
2013-07-25 11:38:00,63.4,59.2,27.92,NNW,346,0.0,0.0,86,0.00,,---,0.19,VWS V14.01,2013-07-25 16:38:00,
2013-07-25 11:43:00,63.3,59.4,27.92,North,349,3.0,3.0,87,0.00,,---,0.19,VWS V14.01,2013-07-25 16:43:00,
2013-07-25 11:48:00,63.5,59.6,27.92,North,349,0.0,0.0,87,0.00,,---,0.19,VWS V14.01,2013-07-25 16:48:00,
2013-07-25 11:54:00,63.7,59.4,27.92,NNW,342,0.0,2.0,86,0.00,,---,0.19,VWS V14.01,2013-07-25 16:54:00,
2013-07-25 11:59:00,64.1,59.8,27.92,NNW,344,1.0,1.0,86,0.00,,---,0.19,VWS V14.01,2013-07-25 16:59:00,
2013-07-25 12:04:00,64.3,60.0,27.93,NNW,344,1.0,2.0,86,0.00,,---,0.19,VWS V14.01,2013-07-25 17:04:00,
2013-07-25 12:09:00,64.3,59.7,27.93,NNW,347,3.0,3.0,85,0.00,,---,0.19,VWS V14.01,2013-07-25 17:09:00,
2013-07-25 12:14:00,64.4,59.8,27.93,NNW,346,0.0,1.0,85,0.00,,---,0.19,VWS V14.01,2013-07-25 17:14:00,
2013-07-25 12:19:00,64.8,59.9,27.92,NNW,346,1.0,1.0,84,0.00,,---,0.19,VWS V14.01,2013-07-25 17:19:00,
2013-07-25 12:24:00,64.9,59.6,27.92,NNW,348,0.0,0.0,83,0.00,,---,0.19,VWS V14.01,2013-07-25 17:24:00,
2013-07-25 12:29:00,64.9,60.0,27.92,North,355,3.0,3.0,84,0.00,,---,0.19,VWS V14.01,2013-07-25 17:29:00,
2013-07-25 12:35:00,65.2,60.2,27.92,North,355,1.0,2.0,84,0.00,,---,0.19,VWS V14.01,2013-07-25 17:35:00,
2013-07-25 12:40:00,65.9,60.9,27.92,North,355,0.0,0.0,84,0.00,,---,0.19,VWS V14.01,2013-07-25 17:40:00,
2013-07-25 12:45:00,66.2,60.9,27.92,North,351,2.0,3.0,83,0.00,,---,0.19,VWS V14.01,2013-07-25 17:45:00,
2013-07-25 12:50:00,66.2,60.5,27.92,North,355,0.0,1.0,82,0.00,,---,0.19,VWS V14.01,2013-07-25 17:50:00,
2013-07-25 12:55:00,66.7,61.0,27.92,North,355,0.0,0.0,82,0.00,,---,0.19,VWS V14.01,2013-07-25 17:55:00,
2013-07-25 13:00:00,66.3,61.0,27.92,North,5,2.0,2.0,83,0.00,,---,0.19,VWS V14.01,2013-07-25 18:00:00,
2013-07-25 13:05:00,66.9,61.9,27.93,North,5,0.0,2.0,84,0.00,,---,0.19,VWS V14.01,2013-07-25 18:05:00,
2013-07-25 13:11:00,68.0,61.2,27.93,North,9,2.0,5.0,79,0.00,,---,0.19,VWS V14.01,2013-07-25 18:11:00,
2013-07-25 13:16:00,67.8,60.7,27.93,North,10,4.0,4.0,78,0.00,,---,0.19,VWS V14.01,2013-07-25 18:16:00,
2013-07-25 13:21:00,66.9,60.5,27.92,NW,321,1.0,5.0,80,0.00,,---,0.19,VWS V14.01,2013-07-25 18:21:00,
2013-07-25 13:26:00,67.0,60.6,27.92,ESE,103,4.0,4.0,80,0.00,,---,0.19,VWS V14.01,2013-07-25 18:26:00,
2013-07-25 13:31:00,66.8,60.4,27.92,North,360,3.0,4.0,80,0.00,,---,0.19,VWS V14.01,2013-07-25 18:31:00,
2013-07-25 13:36:00,66.1,60.1,27.92,North,11,3.0,3.0,81,0.00,,---,0.19,VWS V14.01,2013-07-25 18:36:00,
2013-07-25 13:39:00,66.1,60.5,27.92,NNE,22,0.0,4.0,82,0.00,,---,0.19,VWS V14.01,2013-07-25 18:39:00,
2013-07-25 13:44:00,66.8,60.8,27.92,NNE,18,2.0,3.0,81,0.00,,---,0.19,VWS V14.01,2013-07-25 18:44:00,
2013-07-25 13:49:00,66.7,60.7,27.92,North,355,1.0,1.0,81,0.00,,---,0.19,VWS V14.01,2013-07-25 18:49:00,
2013-07-25 13:54:00,66.5,59.8,27.92,NNE,28,1.0,1.0,79,0.00,,---,0.19,VWS V14.01,2013-07-25 18:54:00,
2013-07-25 13:59:00,66.0,60.0,27.92,NNE,25,0.0,0.0,81,0.00,,---,0.19,VWS V14.01,2013-07-25 18:59:00,
2013-07-25 14:04:00,65.7,59.7,27.92,SE,143,5.0,5.0,81,0.00,,---,0.19,VWS V14.01,2013-07-25 19:04:00,
2013-07-25 14:09:00,64.7,59.8,27.92,SE,135,0.0,0.0,84,0.00,,---,0.19,VWS V14.01,2013-07-25 19:09:00,
2013-07-25 14:14:00,64.2,59.6,27.92,South,174,1.0,1.0,85,0.00,,---,0.19,VWS V14.01,2013-07-25 19:14:00,
2013-07-25 14:19:00,63.8,59.2,27.91,South,173,0.0,0.0,85,0.00,,---,0.19,VWS V14.01,2013-07-25 19:19:00,
2013-07-25 14:24:00,63.7,59.4,27.91,South,174,0.0,0.0,86,0.00,,---,0.19,VWS V14.01,2013-07-25 19:24:00,
2013-07-25 14:29:00,63.2,59.0,27.91,SSE,161,1.0,3.0,86,0.00,,---,0.19,VWS V14.01,2013-07-25 19:29:00,
2013-07-25 14:35:00,62.3,59.0,27.92,SSW,200,0.0,0.0,89,0.01,,---,0.20,VWS V14.01,2013-07-25 19:35:00,
2013-07-25 14:40:00,61.5,58.5,27.92,SSW,200,0.0,0.0,90,0.01,,---,0.20,VWS V14.01,2013-07-25 19:40:00,
2013-07-25 14:45:00,61.4,59.1,27.92,SSW,200,0.0,0.0,92,0.01,,---,0.20,VWS V14.01,2013-07-25 19:45:00,
2013-07-25 14:50:00,61.4,59.4,27.92,SSW,200,0.0,0.0,93,0.01,,---,0.20,VWS V14.01,2013-07-25 19:50:00,
2013-07-25 14:55:00,61.1,59.1,27.92,SSW,198,0.0,0.0,93,0.01,,---,0.20,VWS V14.01,2013-07-25 19:55:00,
2013-07-25 15:00:00,60.8,58.8,27.92,East,80,2.0,2.0,93,0.01,,---,0.20,VWS V14.01,2013-07-25 20:00:00,
2013-07-25 15:05:00,60.7,59.0,27.91,East,80,0.0,0.0,94,0.01,,---,0.20,VWS V14.01,2013-07-25 20:05:00,
2013-07-25 15:10:00,60.6,59.2,27.91,East,80,0.0,0.0,95,0.01,,---,0.20,VWS V14.01,2013-07-25 20:10:00,
2013-07-25 15:15:00,60.8,59.4,27.91,East,80,0.0,0.0,95,0.01,,---,0.20,VWS V14.01,2013-07-25 20:15:00,
2013-07-25 15:20:00,60.7,59.3,27.92,East,79,0.0,0.0,95,0.01,,---,0.20,VWS V14.01,2013-07-25 20:20:00,
2013-07-25 15:26:00,60.7,59.3,27.92,East,79,0.0,1.0,95,0.03,,---,0.22,VWS V14.01,2013-07-25 20:26:00,
2013-07-25 15:31:00,60.7,59.6,27.92,East,79,0.0,2.0,96,0.04,,---,0.23,VWS V14.01,2013-07-25 20:31:00,
2013-07-25 15:36:00,60.7,59.6,27.92,East,79,0.0,0.0,96,0.04,,---,0.24,VWS V14.01,2013-07-25 20:36:00,
2013-07-25 15:41:00,60.7,59.6,27.92,East,79,0.0,0.0,96,0.08,,---,0.28,VWS V14.01,2013-07-25 20:41:00,
2013-07-25 15:46:00,60.7,59.6,27.92,East,79,0.0,0.0,96,0.12,,---,0.32,VWS V14.01,2013-07-25 20:46:00,
2013-07-25 15:51:00,60.8,59.7,27.91,ENE,78,3.0,3.0,96,0.12,,---,0.32,VWS V14.01,2013-07-25 20:51:00,
2013-07-25 15:56:00,61.2,60.3,27.91,SE,124,2.0,4.0,97,0.12,,---,0.32,VWS V14.01,2013-07-25 20:56:00,
2013-07-25 16:01:00,61.4,60.5,27.91,ESE,108,0.0,4.0,97,0.12,,---,0.32,VWS V14.01,2013-07-25 21:01:00,
2013-07-25 16:06:00,61.8,60.9,27.91,ESE,109,0.0,1.0,97,0.12,,---,0.32,VWS V14.01,2013-07-25 21:06:00,
2013-07-25 16:11:00,61.7,60.5,27.91,East,96,0.0,6.0,96,0.12,,---,0.32,VWS V14.01,2013-07-25 21:11:00,
2013-07-25 16:16:00,61.5,60.3,27.91,ESE,110,1.0,2.0,96,0.12,,---,0.32,VWS V14.01,2013-07-25 21:16:00,
2013-07-25 16:21:00,61.5,60.3,27.91,ENE,74,0.0,5.0,96,0.12,,---,0.32,VWS V14.01,2013-07-25 21:21:00,
2013-07-25 16:27:00,61.3,60.2,27.91,ENE,60,4.0,4.0,96,0.10,,---,0.32,VWS V14.01,2013-07-25 21:27:00,
2013-07-25 16:32:00,61.1,60.0,27.90,East,90,3.0,6.0,96,0.09,,---,0.32,VWS V14.01,2013-07-25 21:32:00,
2013-07-25 16:37:00,60.7,59.6,27.90,East,90,1.0,1.0,96,0.07,,---,0.32,VWS V14.01,2013-07-25 21:37:00,
2013-07-25 16:42:00,60.5,59.4,27.90,ENE,78,1.0,2.0,96,0.04,,---,0.32,VWS V14.01,2013-07-25 21:42:00,
2013-07-25 16:47:00,60.4,59.3,27.90,ENE,65,2.0,2.0,96,0.00,,---,0.32,VWS V14.01,2013-07-25 21:47:00,
2013-07-25 16:52:00,60.2,59.1,27.90,SSE,151,3.0,3.0,96,0.00,,---,0.32,VWS V14.01,2013-07-25 21:52:00,
2013-07-25 16:57:00,60.0,58.9,27.90,SE,132,1.0,4.0,96,0.00,,---,0.32,VWS V14.01,2013-07-25 21:57:00,
2013-07-25 17:02:00,59.9,58.8,27.90,SE,132,4.0,5.0,96,0.00,,---,0.32,VWS V14.01,2013-07-25 22:02:00,
2013-07-25 17:07:00,59.7,58.6,27.90,ESE,119,2.0,2.0,96,0.00,,---,0.32,VWS V14.01,2013-07-25 22:07:00,
2013-07-25 17:13:00,59.6,58.5,27.90,SE,140,1.0,3.0,96,0.00,,---,0.32,VWS V14.01,2013-07-25 22:13:00,
2013-07-25 17:18:00,59.6,58.5,27.90,East,90,1.0,3.0,96,0.00,,---,0.32,VWS V14.01,2013-07-25 22:18:00,
2013-07-25 17:23:00,59.6,58.5,27.90,SE,138,2.0,2.0,96,0.00,,---,0.32,VWS V14.01,2013-07-25 22:23:00,
2013-07-25 17:28:00,59.6,58.8,27.90,SE,128,0.0,2.0,97,0.01,,---,0.33,VWS V14.01,2013-07-25 22:28:00,
2013-07-25 17:33:00,59.6,58.8,27.90,SE,132,2.0,3.0,97,0.02,,---,0.34,VWS V14.01,2013-07-25 22:33:00,
2013-07-25 17:38:00,59.7,58.8,27.90,SE,136,6.0,6.0,97,0.02,,---,0.34,VWS V14.01,2013-07-25 22:38:00,
2013-07-25 17:44:00,59.8,59.0,27.90,SE,131,6.0,6.0,97,0.02,,---,0.34,VWS V14.01,2013-07-25 22:44:00,
2013-07-25 17:49:00,59.6,58.8,27.88,SSE,153,0.0,5.0,97,0.03,,---,0.35,VWS V14.01,2013-07-25 22:49:00,
2013-07-25 17:54:00,59.7,58.8,27.88,East,89,2.0,2.0,97,0.03,,---,0.35,VWS V14.01,2013-07-25 22:54:00,
2013-07-25 17:59:00,60.2,59.3,27.88,East,79,0.0,3.0,97,0.03,,---,0.35,VWS V14.01,2013-07-25 22:59:00,
2013-07-25 18:04:00,60.4,59.5,27.89,ENE,74,3.0,5.0,97,0.03,,---,0.35,VWS V14.01,2013-07-25 23:04:00,
2013-07-25 18:09:00,60.3,59.5,27.89,SE,136,0.0,0.0,97,0.03,,---,0.35,VWS V14.01,2013-07-25 23:09:00,
2013-07-25 18:14:00,60.0,59.2,27.89,East,97,2.0,5.0,97,0.03,,---,0.35,VWS V14.01,2013-07-25 23:14:00,
2013-07-25 18:19:00,59.9,59.0,27.89,ESE,116,0.0,1.0,97,0.03,,---,0.35,VWS V14.01,2013-07-25 23:19:00,
2013-07-25 18:24:00,59.9,59.0,27.89,SE,136,0.0,0.0,97,0.03,,---,0.35,VWS V14.01,2013-07-25 23:24:00,
2013-07-25 18:30:00,60.0,59.2,27.89,SE,136,0.0,0.0,97,0.02,,---,0.35,VWS V14.01,2013-07-25 23:30:00,
2013-07-25 18:35:00,60.1,59.2,27.89,SE,136,0.0,0.0,97,0.01,,---,0.35,VWS V14.01,2013-07-25 23:35:00,
2013-07-25 18:40:00,60.3,59.5,27.89,SE,136,0.0,0.0,97,0.01,,---,0.35,VWS V14.01,2013-07-25 23:40:00,
2013-07-25 18:45:00,60.5,59.7,27.89,WNW,290,4.0,4.0,97,0.01,,---,0.35,VWS V14.01,2013-07-25 23:45:00,
2013-07-25 18:50:00,60.0,58.9,27.90,NNW,347,0.0,1.0,96,0.00,,---,0.35,VWS V14.01,2013-07-25 23:50:00,
2013-07-25 18:55:00,59.5,58.4,27.90,North,351,1.0,1.0,96,0.00,,---,0.35,VWS V14.01,2013-07-25 23:55:00,
2013-07-25 19:00:00,59.2,58.1,27.90,NNE,32,0.0,2.0,96,0.00,,---,0.35,VWS V14.01,2013-07-26 00:00:00,
2013-07-25 19:05:00,59.1,58.0,27.90,North,11,2.0,4.0,96,0.01,,---,0.36,VWS V14.01,2013-07-26 00:05:00,
2013-07-25 19:10:00,59.0,57.9,27.90,NNE,22,1.0,1.0,96,0.01,,---,0.36,VWS V14.01,2013-07-26 00:10:00,
2013-07-25 19:15:00,59.0,58.2,27.90,NE,42,3.0,3.0,97,0.01,,---,0.36,VWS V14.01,2013-07-26 00:15:00,
2013-07-25 19:20:00,59.0,57.9,27.91,SE,136,0.0,3.0,96,0.01,,---,0.36,VWS V14.01,2013-07-26 00:20:00,
2013-07-25 19:26:00,59.0,58.2,27.91,ESE,122,3.0,3.0,97,0.01,,---,0.36,VWS V14.01,2013-07-26 00:26:00,
2013-07-25 19:31:00,58.8,58.0,27.91,East,95,6.0,6.0,97,0.01,,---,0.36,VWS V14.01,2013-07-26 00:31:00,
2013-07-25 19:36:00,58.5,57.4,27.91,ESE,109,4.0,4.0,96,0.01,,---,0.36,VWS V14.01,2013-07-26 00:36:00,
2013-07-25 19:41:00,58.2,57.1,27.91,ESE,107,2.0,2.0,96,0.01,,---,0.36,VWS V14.01,2013-07-26 00:41:00,
2013-07-25 19:46:00,58.2,57.4,27.91,SE,132,1.0,3.0,97,0.01,,---,0.36,VWS V14.01,2013-07-26 00:46:00,
2013-07-25 19:51:00,58.4,57.6,27.91,ESE,107,5.0,5.0,97,0.01,,---,0.36,VWS V14.01,2013-07-26 00:51:00,
2013-07-25 19:56:00,58.5,57.7,27.91,East,87,5.0,5.0,97,0.01,,---,0.36,VWS V14.01,2013-07-26 00:56:00,
2013-07-25 20:01:00,58.5,57.7,27.90,ESE,113,0.0,1.0,97,0.01,,---,0.36,VWS V14.01,2013-07-26 01:01:00,
2013-07-25 20:06:00,58.3,57.2,27.90,ESE,109,1.0,4.0,96,0.00,,---,0.36,VWS V14.01,2013-07-26 01:06:00,
2013-07-25 20:12:00,58.1,57.0,27.90,ESE,117,1.0,4.0,96,0.00,,---,0.36,VWS V14.01,2013-07-26 01:12:00,
2013-07-25 20:17:00,58.0,56.9,27.90,East,83,3.0,6.0,96,0.00,,---,0.36,VWS V14.01,2013-07-26 01:17:00,
2013-07-25 20:22:00,57.8,56.7,27.90,ESE,109,1.0,2.0,96,0.00,,---,0.36,VWS V14.01,2013-07-26 01:22:00,
2013-07-25 20:27:00,57.7,56.6,27.90,East,96,2.0,5.0,96,0.00,,---,0.36,VWS V14.01,2013-07-26 01:27:00,
2013-07-25 20:32:00,57.6,56.8,27.90,East,95,1.0,5.0,97,0.00,,---,0.36,VWS V14.01,2013-07-26 01:32:00,
2013-07-25 20:37:00,57.5,56.7,27.90,ESE,116,0.0,0.0,97,0.00,,---,0.36,VWS V14.01,2013-07-26 01:37:00,
2013-07-25 20:42:00,57.4,56.6,27.90,ESE,116,0.0,2.0,97,0.00,,---,0.36,VWS V14.01,2013-07-26 01:42:00,
2013-07-25 20:47:00,57.3,56.2,27.90,ESE,117,0.0,2.0,96,0.00,,---,0.36,VWS V14.01,2013-07-26 01:47:00,
2013-07-25 20:52:00,57.2,56.4,27.90,ESE,118,3.0,4.0,97,0.00,,---,0.36,VWS V14.01,2013-07-26 01:52:00,
2013-07-25 20:57:00,57.1,56.3,27.90,ESE,119,0.0,0.0,97,0.00,,---,0.36,VWS V14.01,2013-07-26 01:57:00,
2013-07-25 21:02:00,57.1,56.3,27.90,ESE,119,0.0,0.0,97,0.00,,---,0.36,VWS V14.01,2013-07-26 02:02:00,
2013-07-25 21:07:00,57.0,56.2,27.90,ESE,117,0.0,0.0,97,0.00,,---,0.36,VWS V14.01,2013-07-26 02:07:00,
2013-07-25 21:12:00,56.9,56.1,27.90,South,169,1.0,1.0,97,0.00,,---,0.36,VWS V14.01,2013-07-26 02:12:00,
2013-07-25 21:17:00,56.8,56.0,27.90,SE,138,0.0,0.0,97,0.00,,---,0.36,VWS V14.01,2013-07-26 02:17:00,
2013-07-25 21:22:00,56.8,56.0,27.90,SSE,167,1.0,3.0,97,0.00,,---,0.36,VWS V14.01,2013-07-26 02:22:00,
2013-07-25 21:27:00,56.8,56.0,27.90,SE,142,0.0,0.0,97,0.00,,---,0.36,VWS V14.01,2013-07-26 02:27:00,
2013-07-25 21:32:00,56.7,55.9,27.91,ESE,106,4.0,4.0,97,0.00,,---,0.36,VWS V14.01,2013-07-26 02:32:00,
2013-07-25 21:37:00,56.7,55.9,27.91,SSE,150,1.0,4.0,97,0.00,,---,0.36,VWS V14.01,2013-07-26 02:37:00,
2013-07-25 21:42:00,56.6,55.8,27.91,SSE,148,3.0,3.0,97,0.00,,---,0.36,VWS V14.01,2013-07-26 02:42:00,
2013-07-25 21:47:00,56.6,55.8,27.90,SE,142,0.0,1.0,97,0.00,,---,0.36,VWS V14.01,2013-07-26 02:47:00,
2013-07-25 21:52:00,56.5,55.7,27.90,SE,145,2.0,4.0,97,0.00,,---,0.36,VWS V14.01,2013-07-26 02:52:00,
2013-07-25 21:57:00,56.5,55.7,27.90,SE,146,0.0,1.0,97,0.00,,---,0.36,VWS V14.01,2013-07-26 02:57:00,
2013-07-25 22:02:00,56.4,55.6,27.91,SE,136,2.0,2.0,97,0.00,,---,0.36,VWS V14.01,2013-07-26 03:02:00,
2013-07-25 22:08:00,56.3,55.5,27.91,SE,137,0.0,0.0,97,0.00,,---,0.36,VWS V14.01,2013-07-26 03:08:00,
2013-07-25 22:13:00,56.1,55.3,27.91,SE,138,0.0,0.0,97,0.00,,---,0.36,VWS V14.01,2013-07-26 03:13:00,
2013-07-25 22:18:00,56.0,55.2,27.91,SE,138,2.0,2.0,97,0.00,,---,0.36,VWS V14.01,2013-07-26 03:18:00,
2013-07-25 22:23:00,55.9,55.1,27.91,SE,137,0.0,0.0,97,0.00,,---,0.36,VWS V14.01,2013-07-26 03:23:00,
2013-07-25 22:28:00,55.7,54.9,27.91,ESE,113,0.0,0.0,97,0.00,,---,0.36,VWS V14.01,2013-07-26 03:28:00,
2013-07-25 22:33:00,55.5,54.7,27.91,SSE,150,2.0,2.0,97,0.00,,---,0.36,VWS V14.01,2013-07-26 03:33:00,
2013-07-25 22:38:00,55.4,54.6,27.91,ESE,117,4.0,4.0,97,0.00,,---,0.36,VWS V14.01,2013-07-26 03:38:00,
2013-07-25 22:44:00,55.2,54.4,27.91,South,190,4.0,7.0,97,0.00,,---,0.36,VWS V14.01,2013-07-26 03:44:00,
2013-07-25 22:49:00,55.1,54.3,27.91,SSE,154,1.0,7.0,97,0.00,,---,0.36,VWS V14.01,2013-07-26 03:49:00,
2013-07-25 22:54:00,55.0,54.2,27.91,SSE,163,4.0,7.0,97,0.00,,---,0.36,VWS V14.01,2013-07-26 03:54:00,
2013-07-25 22:59:00,54.9,54.1,27.91,SE,140,3.0,5.0,97,0.00,,---,0.36,VWS V14.01,2013-07-26 03:59:00,
2013-07-25 23:01:00,54.8,54.0,27.91,SE,138,2.0,4.0,97,0.00,,---,0.36,VWS V14.01,2013-07-26 04:01:00,
2013-07-25 23:02:00,54.8,54.0,27.89,SE,136,3.0,4.0,97,0.00,,---,0.36,VWS V14.01,2013-07-26 04:02:00,
2013-07-25 23:03:00,54.8,54.0,27.89,SSE,152,0.0,4.0,97,0.00,,---,0.36,VWS V14.01,2013-07-26 04:03:00,
2013-07-25 23:08:00,54.7,54.2,27.89,SE,141,6.0,6.0,98,0.00,,---,0.36,VWS V14.01,2013-07-26 04:08:00,
2013-07-25 23:13:00,54.6,54.0,27.89,SE,136,2.0,4.0,98,0.00,,---,0.36,VWS V14.01,2013-07-26 04:13:00,
2013-07-25 23:18:00,54.7,54.2,27.88,SE,139,3.0,6.0,98,0.00,,---,0.36,VWS V14.01,2013-07-26 04:18:00,
2013-07-25 23:23:00,54.6,54.0,27.88,SE,135,3.0,8.0,98,0.00,,---,0.36,VWS V14.01,2013-07-26 04:23:00,
2013-07-25 23:28:00,54.6,54.0,27.88,SE,132,4.0,4.0,98,0.00,,---,0.36,VWS V14.01,2013-07-26 04:28:00,
2013-07-25 23:33:00,54.6,54.0,27.88,SSE,149,1.0,5.0,98,0.00,,---,0.36,VWS V14.01,2013-07-26 04:33:00,
2013-07-25 23:38:00,54.6,54.0,27.88,SE,139,1.0,6.0,98,0.00,,---,0.36,VWS V14.01,2013-07-26 04:38:00,
2013-07-25 23:43:00,54.7,54.2,27.88,ESE,117,0.0,1.0,98,0.00,,---,0.36,VWS V14.01,2013-07-26 04:43:00,
2013-07-25 23:48:00,54.8,54.2,27.89,South,179,6.0,6.0,98,0.00,,---,0.36,VWS V14.01,2013-07-26 04:48:00,
2013-07-25 23:53:00,54.8,54.2,27.89,SSE,167,0.0,1.0,98,0.00,,---,0.36,VWS V14.01,2013-07-26 04:53:00,
2013-07-25 23:59:00,54.9,54.3,27.89,ESE,123,1.0,1.0,98,0.00,,---,0.36,VWS V14.01,2013-07-26 04:59:00,